map of SDL home
SDL - Airport
Location
City:  Sundsvall-Härnösand, Västernorrlands län, Sweden
Name:Midlanda
ICAO:ESNN
IATA:SDL

Details
Type:Airport (Aerodrome, Airfield)
Use:Public/Civil
Latitude:62°31'41"N (62.528125)
Longitude:17°26'38"E (17.443928)
Datum:WGS 1984
Elevation:16 ft (5 m)
Variation:6.41°E (WMM2015 magnetic declination)
0.18° annual change
Runways:1
Longest:6857 × 148 ft (2090 × 45 m), paved

Time
Time Zone:UTC+1 (DST+2)
Local Time:

Weather
METAR:ESNN 171320Z 00000KT CAVOK M11/M12 Q1009 R16/79//67

Related Locations
Nearby:
Farthest:NZTB: 11269 mi / 18136 km
Terra Nova Bay [Mario Zucchelli Station], AQ

Find:

   beyond  
but within

Other Information
Maps:
NOTAMs:
Links:
Sources:

  
flag of Sweden   

Sectional Chart

Flight Planning
at skyvector.com

Satellite Image

Google Maps Satellite view

 

Copyright © 2004-2017 Karl L. Swartz. All rights reserved.
The Great Circle Mapper name and logo are trademarks of the Great Circle Mapper.
All other trademarks mentioned herein belong to their respective owners.
Please see credits for attibutions and further copyright information.

  Follow gcmap on Facebook Follow gcmap on Twitter Follow gcmap on Google+ GCmap on LinkedIn

hCard Microformat

Geo Microformat